Newberne, West Virginia
Current Conditions -  °F | °C
As of 7:53 PM on Friday 28 Nov 2014 (Local Time) from KPKB Reporting Station
Clear Clear  
Wind Chill: 24°   Ceiling: Unl
Heat Index: 29°   Visibility: 10mi
Dew Point: 17°   Wind: 5mph
Humidity: 61%   Direction: 150°SSE
Pressure: 30.25"   Gusts: NA
Location:  39.1565°N, 81.0304°W
Report Text: KPKB 290053Z 15004KT 10SM CLR M02/M08 A3025 RMK AO2 SLP255 T10171083
Loading
Personal Weather Stations






























Interactive Weather Map New forecast layout! Learn more

10-Day Weather Forecast

Advertisements
Track Severe Weather on mobile